Time;durP1;ratioP1;P1;durP2;ratioP2;P2;SDS_P1;SDS_P2;PMS_P1;PMS_P2;Temp;Humidity;BMP_temperature;BMP_pressure;BME280_temperature;BME280_humidity;BME280_pressure;Samples;Min_cycle;Max_cycle;Signal;HPM_P1;HPM_P2
2022/07/17 00:01:07;;;;;;;4.32;2.80;;;;;;;14.35;94.58;99533.06;5009470;28;20654;-69
2022/07/17 00:03:32;;;;;;;7.65;3.00;;;;;;;14.35;95.83;99543.09;5007965;28;20080;-69
2022/07/17 00:05:58;;;;;;;3.33;2.70;;;;;;;14.26;95.42;99547.94;5007498;28;20022;-69
2022/07/17 00:08:23;;;;;;;7.90;3.30;;;;;;;14.17;96.17;99539.16;5001702;28;20030;-69
2022/07/17 00:10:49;;;;;;;7.72;3.10;;;;;;;14.14;97.47;99547.69;5013240;28;20025;-69
2022/07/17 00:13:14;;;;;;;5.35;3.65;;;;;;;14.06;96.24;99528.84;5009342;28;20029;-69
2022/07/17 00:15:40;;;;;;;5.57;3.50;;;;;;;14.11;99.86;99545.41;5008541;28;20139;-69
2022/07/17 00:18:06;;;;;;;4.45;2.97;;;;;;;13.99;100.00;99544.34;5006797;28;20041;-69
2022/07/17 00:20:32;;;;;;;8.38;3.28;;;;;;;13.85;100.00;99546.19;5010627;28;20026;-69
2022/07/17 00:22:58;;;;;;;6.07;3.45;;;;;;;13.72;100.00;99548.91;5006526;28;20037;-69
2022/07/17 00:25:24;;;;;;;7.75;3.67;;;;;;;13.74;100.00;99547.66;5008029;28;20022;-69
2022/07/17 00:27:49;;;;;;;4.88;3.10;;;;;;;13.74;100.00;99546.81;5005521;28;20026;-69
2022/07/17 00:30:16;;;;;;;7.13;3.95;;;;;;;13.72;100.00;99543.47;5009181;28;20088;-69
2022/07/17 00:32:41;;;;;;;5.40;3.55;;;;;;;13.79;100.00;99544.31;5002550;28;20022;-69
2022/07/17 00:35:07;;;;;;;5.40;3.92;;;;;;;13.68;100.00;99551.19;5006310;28;20033;-69
2022/07/17 00:37:40;;;;;;;5.93;4.90;;;;;;;13.58;100.00;99553.47;5009943;28;20116;-69
2022/07/17 00:40:07;;;;;;;5.57;3.97;;;;;;;13.43;100.00;99556.34;5010100;28;20040;-69
2022/07/17 00:42:32;;;;;;;5.10;3.20;;;;;;;13.44;100.00;99529.97;5009395;28;20364;-69
2022/07/17 00:44:57;;;;;;;3.60;2.95;;;;;;;13.59;100.00;99546.97;5009629;28;20049;-69
2022/07/17 00:47:23;;;;;;;4.40;2.78;;;;;;;13.68;100.00;99559.34;5010416;28;20030;-69
2022/07/17 00:49:48;;;;;;;3.40;2.53;;;;;;;13.67;100.00;99560.38;5011168;28;20072;-69
2022/07/17 00:52:15;;;;;;;4.90;3.28;;;;;;;13.61;100.00;99558.50;5007690;28;20144;-69
2022/07/17 00:54:43;;;;;;;6.68;3.08;;;;;;;13.55;100.00;99549.28;5003379;28;20034;-69
2022/07/17 00:57:13;;;;;;;4.43;3.15;;;;;;;13.53;100.00;99550.53;5010969;28;20030;-69
2022/07/17 00:59:40;;;;;;;8.48;3.08;;;;;;;13.44;100.00;99551.72;5007831;28;20021;-69
2022/07/17 01:02:07;;;;;;;3.80;2.75;;;;;;;13.30;100.00;99554.41;5012929;28;20077;-69
2022/07/17 01:04:36;;;;;;;8.85;3.47;;;;;;;13.29;100.00;99549.19;5009406;28;20036;-69
2022/07/17 01:07:03;;;;;;;9.30;3.75;;;;;;;13.23;100.00;99548.09;5006954;28;20026;-69
2022/07/17 01:09:29;;;;;;;4.68;3.65;;;;;;;13.17;100.00;99554.31;5003517;28;20365;-69
2022/07/17 01:11:55;;;;;;;8.52;3.90;;;;;;;13.17;100.00;99559.75;5012557;28;20037;-69
2022/07/17 01:14:22;;;;;;;7.78;3.95;;;;;;;13.06;100.00;99554.88;5008242;28;20030;-69
2022/07/17 01:16:49;;;;;;;6.45;3.53;;;;;;;12.96;100.00;99528.09;5003437;28;20033;-70
2022/07/17 01:19:14;;;;;;;5.13;3.83;;;;;;;13.05;100.00;99553.22;5011485;28;20030;-69
2022/07/17 01:21:42;;;;;;;8.02;3.80;;;;;;;13.13;100.00;99563.91;5009428;28;20563;-69
2022/07/17 01:24:07;;;;;;;6.65;4.10;;;;;;;13.08;100.00;99564.50;5005769;28;20026;-69
2022/07/17 01:26:33;;;;;;;9.32;4.72;;;;;;;12.88;100.00;99539.13;5006380;28;20486;-69
2022/07/17 01:28:58;;;;;;;8.20;4.85;;;;;;;12.99;100.00;99565.69;5006853;28;20104;-69
2022/07/17 01:31:23;;;;;;;7.18;4.80;;;;;;;12.87;100.00;99562.72;5004113;28;20069;-69
2022/07/17 01:33:49;;;;;;;7.78;4.65;;;;;;;12.91;100.00;99565.88;5011461;28;20063;-70
2022/07/17 01:36:14;;;;;;;8.88;5.10;;;;;;;12.82;100.00;99564.38;5000700;28;20025;-70
2022/07/17 01:38:39;;;;;;;6.28;4.43;;;;;;;12.83;100.00;99538.88;5009851;28;20030;-70
2022/07/17 01:41:05;;;;;;;10.52;3.80;;;;;;;13.01;100.00;99560.91;5004341;28;20029;-70
2022/07/17 01:43:30;;;;;;;5.53;3.72;;;;;;;13.10;100.00;99562.44;5005628;28;20026;-70
2022/07/17 01:45:55;;;;;;;5.80;3.38;;;;;;;13.02;100.00;99554.47;5005619;28;20022;-70
2022/07/17 01:48:29;;;;;;;4.97;3.78;;;;;;;12.84;100.00;99568.56;5003865;28;20038;-70
2022/07/17 01:50:55;;;;;;;5.18;3.38;;;;;;;12.77;100.00;99564.13;5007672;28;20502;-70
2022/07/17 01:53:20;;;;;;;4.88;3.88;;;;;;;12.58;100.00;99549.38;5006709;28;20108;-70
2022/07/17 01:55:46;;;;;;;4.38;3.33;;;;;;;12.54;100.00;99550.81;5006307;28;20105;-70
2022/07/17 01:58:12;;;;;;;5.18;3.03;;;;;;;12.51;100.00;99557.47;5005396;28;20530;-70
2022/07/17 02:00:38;;;;;;;7.55;3.85;;;;;;;12.35;100.00;99564.03;5003384;28;20054;-70
2022/07/17 02:03:03;;;;;;;4.38;3.58;;;;;;;12.47;100.00;99557.03;5000493;28;20053;-70
2022/07/17 02:05:28;;;;;;;7.93;3.60;;;;;;;12.53;100.00;99549.97;5006549;28;20034;-70
2022/07/17 02:07:54;;;;;;;4.22;3.58;;;;;;;12.40;100.00;99550.69;5005129;28;20480;-70
2022/07/17 02:10:19;;;;;;;6.65;4.20;;;;;;;12.36;100.00;99549.41;5012404;28;20415;-70
2022/07/17 02:12:44;;;;;;;5.95;4.15;;;;;;;12.16;100.00;99518.59;5006785;28;20030;-70
2022/07/17 02:15:11;;;;;;;7.43;4.10;;;;;;;12.16;100.00;99545.72;5006243;28;20566;-70
2022/07/17 02:17:36;;;;;;;5.97;4.22;;;;;;;12.10;100.00;99547.31;5009913;28;20030;-70
2022/07/17 02:20:01;;;;;;;6.93;4.07;;;;;;;11.96;100.00;99543.63;5010022;28;20132;-70
2022/07/17 02:22:27;;;;;;;5.47;3.70;;;;;;;11.88;100.00;99551.91;5009616;28;20108;-70
2022/07/17 02:24:52;;;;;;;7.72;4.30;;;;;;;11.79;100.00;99536.78;5006583;28;20040;-70
2022/07/17 02:27:17;;;;;;;8.95;5.50;;;;;;;11.80;100.00;99543.88;5004118;28;20036;-70
2022/07/17 02:29:43;;;;;;;6.80;4.82;;;;;;;11.68;100.00;99526.44;5009421;28;20022;-70
2022/07/17 02:32:08;;;;;;;7.57;5.32;;;;;;;11.70;100.00;99559.63;5009296;28;20034;-70
2022/07/17 02:34:33;;;;;;;6.40;4.82;;;;;;;11.63;100.00;99549.56;5005296;28;20062;-70
2022/07/17 02:36:58;;;;;;;6.13;4.15;;;;;;;11.66;100.00;99547.47;5006351;28;20026;-70
2022/07/17 02:39:24;;;;;;;5.97;4.38;;;;;;;11.51;100.00;99545.66;5006861;28;20034;-70
2022/07/17 02:41:49;;;;;;;5.00;3.97;;;;;;;11.50;100.00;99541.28;5000540;28;20026;-70
2022/07/17 02:44:14;;;;;;;6.03;4.43;;;;;;;11.46;100.00;99548.09;5007027;28;20034;-70
2022/07/17 02:46:40;;;;;;;7.63;4.43;;;;;;;11.33;100.00;99515.44;5005662;28;20108;-70
2022/07/17 02:49:06;;;;;;;5.63;4.30;;;;;;;11.48;100.00;99524.34;5008788;28;20636;-70
2022/07/17 02:51:31;;;;;;;12.57;5.00;;;;;;;11.54;100.00;99518.16;5009786;28;20487;-70
2022/07/17 02:53:56;;;;;;;7.15;4.60;;;;;;;11.84;100.00;99537.00;5005240;28;20041;-70
2022/07/17 02:56:21;;;;;;;7.82;4.40;;;;;;;11.80;100.00;99522.19;5005871;28;20121;-70
2022/07/17 02:58:47;;;;;;;5.95;4.15;;;;;;;11.67;100.00;99520.19;5011706;28;20030;-70
2022/07/17 03:01:12;;;;;;;6.50;3.30;;;;;;;11.68;100.00;99527.25;5008420;28;20388;-70
2022/07/17 03:03:37;;;;;;;10.02;3.78;;;;;;;11.69;100.00;99534.38;5004198;28;20105;-70
2022/07/17 03:06:03;;;;;;;6.22;3.50;;;;;;;11.54;100.00;99534.41;5008880;28;20079;-70
2022/07/17 03:08:28;;;;;;;5.63;3.20;;;;;;;11.47;100.00;99525.38;5007334;28;20033;-70
2022/07/17 03:10:53;;;;;;;4.35;3.15;;;;;;;11.45;100.00;99543.72;5004919;28;20022;-70
2022/07/17 03:13:18;;;;;;;11.23;3.72;;;;;;;11.37;100.00;99523.00;5006156;28;20516;-70
2022/07/17 03:15:44;;;;;;;3.72;3.05;;;;;;;11.24;100.00;99511.13;5006264;28;20034;-70
2022/07/17 03:18:09;;;;;;;3.95;3.33;;;;;;;11.31;100.00;99540.00;5011336;28;20037;-70
2022/07/17 03:20:34;;;;;;;4.97;3.40;;;;;;;11.25;100.00;99540.75;5011774;28;20034;-70
2022/07/17 03:23:00;;;;;;;5.88;3.50;;;;;;;11.08;100.00;99512.19;5005130;28;20026;-70
2022/07/17 03:25:25;;;;;;;7.05;3.88;;;;;;;11.47;100.00;99544.34;4997958;28;20029;-70
2022/07/17 03:27:50;;;;;;;7.35;3.50;;;;;;;11.49;100.00;99547.69;5003287;28;20034;-70
2022/07/17 03:30:15;;;;;;;4.80;3.40;;;;;;;11.44;100.00;99544.72;5011366;28;20487;-70
2022/07/17 03:32:41;;;;;;;16.60;4.43;;;;;;;11.44;100.00;99550.16;5007173;28;20076;-70
2022/07/17 03:37:31;;;;;;;11.05;3.67;;;;;;;11.48;100.00;99543.31;5034077;23;20073;-69
2022/07/17 03:39:56;;;;;;;4.97;3.72;;;;;;;11.48;100.00;99550.63;5004767;28;20035;-69
2022/07/17 03:42:22;;;;;;;4.78;3.70;;;;;;;11.39;100.00;99550.72;5010903;28;20479;-69
2022/07/17 03:44:47;;;;;;;7.93;4.20;;;;;;;11.45;100.00;99551.84;5011526;28;20117;-69
2022/07/17 03:47:12;;;;;;;5.40;4.28;;;;;;;11.37;100.00;99541.09;5016193;28;20033;-69
2022/07/17 03:49:38;;;;;;;5.32;3.95;;;;;;;11.35;100.00;99556.72;5014225;28;20117;-69
2022/07/17 03:52:03;;;;;;;6.38;4.20;;;;;;;11.25;100.00;99543.47;5012293;28;20017;-69
2022/07/17 03:54:29;;;;;;;5.43;3.53;;;;;;;11.15;100.00;99540.22;5011763;28;20077;-70
2022/07/17 03:56:54;;;;;;;5.47;3.97;;;;;;;11.17;100.00;99549.00;5009896;28;20056;-69
2022/07/17 03:59:20;;;;;;;5.22;4.40;;;;;;;11.13;100.00;99540.41;5009283;28;20032;-69
2022/07/17 04:01:45;;;;;;;6.10;4.07;;;;;;;11.33;100.00;99545.22;5006875;28;20022;-70
2022/07/17 04:04:11;;;;;;;5.70;4.28;;;;;;;11.36;100.00;99542.97;5018274;28;20040;-70
2022/07/17 04:06:36;;;;;;;6.43;3.88;;;;;;;11.52;100.00;99554.63;5016795;28;20037;-68
2022/07/17 04:09:01;;;;;;;5.82;3.50;;;;;;;11.46;100.00;99548.09;5019602;28;20018;-69
2022/07/17 04:11:26;;;;;;;8.50;4.30;;;;;;;11.43;100.00;99548.47;5019358;28;20029;-69
2022/07/17 04:13:52;;;;;;;6.88;3.95;;;;;;;11.41;100.00;99547.81;5019109;28;20045;-69
2022/07/17 04:16:17;;;;;;;5.05;3.80;;;;;;;11.46;100.00;99549.97;5016983;28;20049;-69
2022/07/17 04:18:42;;;;;;;8.98;4.72;;;;;;;11.50;100.00;99562.09;5027466;28;20021;-68
2022/07/17 04:21:09;;;;;;;8.70;4.72;;;;;;;11.55;100.00;99557.81;5001525;28;20447;-68
2022/07/17 04:23:35;;;;;;;9.77;4.63;;;;;;;11.55;100.00;99555.09;5014523;28;20030;-69
2022/07/17 04:26:02;;;;;;;7.75;4.18;;;;;;;11.65;100.00;99556.63;5007088;28;20556;-69
2022/07/17 04:28:27;;;;;;;7.15;4.10;;;;;;;11.59;100.00;99537.41;5018322;28;20033;-70
2022/07/17 04:30:52;;;;;;;6.22;3.75;;;;;;;11.80;100.00;99562.84;5014967;28;20407;-69
2022/07/17 04:33:18;;;;;;;8.95;3.60;;;;;;;11.90;100.00;99562.56;5012478;28;20041;-69
2022/07/17 04:35:43;;;;;;;4.28;3.50;;;;;;;11.97;100.00;99567.03;5009460;28;20022;-70
2022/07/17 04:38:09;;;;;;;6.88;4.63;;;;;;;11.99;100.00;99547.84;5014545;28;20038;-69
2022/07/17 04:40:37;;;;;;;8.23;4.97;;;;;;;12.12;100.00;99575.09;5007782;28;20026;-69
2022/07/17 04:43:03;;;;;;;6.60;4.60;;;;;;;12.22;100.00;99572.88;5004270;28;20030;-69
2022/07/17 04:45:28;;;;;;;4.57;4.05;;;;;;;12.24;100.00;99568.09;5013477;28;20037;-70
2022/07/17 04:47:54;;;;;;;4.68;3.88;;;;;;;12.29;100.00;99570.25;5009314;28;20022;-70
2022/07/17 04:50:20;;;;;;;4.38;3.80;;;;;;;12.37;100.00;99566.56;5004208;28;20113;-70
2022/07/17 04:52:45;;;;;;;6.40;4.35;;;;;;;12.40;100.00;99558.84;5015762;28;20029;-70
2022/07/17 04:55:11;;;;;;;4.82;4.20;;;;;;;12.62;100.00;99570.47;5008239;28;20495;-69
2022/07/17 04:57:36;;;;;;;5.00;4.07;;;;;;;12.76;100.00;99567.84;5005484;28;20030;-69
2022/07/17 05:00:04;;;;;;;10.80;4.07;;;;;;;12.89;100.00;99571.53;5008309;28;20105;-69
2022/07/17 05:02:29;;;;;;;8.00;4.20;;;;;;;13.07;100.00;99572.84;5002367;28;20041;-70
2022/07/17 05:04:55;;;;;;;3.80;3.22;;;;;;;13.14;100.00;99569.13;5014617;28;20084;-70
2022/07/17 05:07:20;;;;;;;4.20;3.47;;;;;;;13.29;100.00;99571.75;5019384;28;20030;-69
2022/07/17 05:09:45;;;;;;;6.50;3.53;;;;;;;13.42;100.00;99584.56;5010735;28;20487;-69
2022/07/17 05:12:11;;;;;;;6.50;3.10;;;;;;;13.55;100.00;99570.19;5004472;28;20060;-68
2022/07/17 05:14:36;;;;;;;6.75;3.33;;;;;;;13.74;100.00;99568.56;5009720;28;20028;-69
2022/07/17 05:17:02;;;;;;;4.25;3.30;;;;;;;13.85;97.92;99562.53;5008874;28;20018;-69
2022/07/17 05:19:27;;;;;;;6.45;3.47;;;;;;;13.96;96.90;99561.94;5008774;28;20475;-69
2022/07/17 05:21:52;;;;;;;6.43;3.50;;;;;;;14.01;97.41;99569.47;5015054;28;20049;-69
2022/07/17 05:24:18;;;;;;;7.85;4.03;;;;;;;14.17;95.31;99571.81;5008618;28;20030;-69
2022/07/17 05:26:43;;;;;;;9.35;4.10;;;;;;;14.29;94.67;99550.22;5001782;28;20547;-69
2022/07/17 05:29:08;;;;;;;4.90;3.70;;;;;;;14.56;93.22;99558.41;5008551;28;20026;-70
2022/07/17 05:31:34;;;;;;;5.32;3.70;;;;;;;14.78;95.52;99570.75;5021227;28;20061;-70
2022/07/17 05:33:59;;;;;;;8.20;3.90;;;;;;;14.96;94.21;99564.66;5002462;28;20498;-70
2022/07/17 05:36:24;;;;;;;4.72;3.40;;;;;;;15.22;90.59;99569.19;5004931;28;20030;-70
2022/07/17 05:38:50;;;;;;;7.97;3.97;;;;;;;15.40;88.47;99563.03;5014662;28;20036;-70
2022/07/17 05:41:15;;;;;;;4.90;3.28;;;;;;;15.63;87.49;99561.69;5009503;28;20033;-70
2022/07/17 05:43:40;;;;;;;3.88;3.35;;;;;;;15.80;86.86;99562.03;5008627;28;20088;-69
2022/07/17 05:46:05;;;;;;;3.63;3.10;;;;;;;15.98;84.07;99565.72;5003829;28;20116;-69
2022/07/17 05:48:31;;;;;;;5.60;3.45;;;;;;;16.13;76.10;99559.91;5013083;28;20022;-69
2022/07/17 05:50:56;;;;;;;4.60;2.95;;;;;;;16.23;70.32;99570.34;5018159;28;20029;-69
2022/07/17 05:53:22;;;;;;;9.57;2.67;;;;;;;16.36;70.70;99572.16;5009648;28;20038;-69
2022/07/17 05:55:47;;;;;;;6.05;3.00;;;;;;;16.52;68.24;99573.50;5005984;28;20068;-69
2022/07/17 05:58:13;;;;;;;5.00;2.80;;;;;;;16.68;67.90;99572.91;5003360;28;20134;-69
2022/07/17 06:00:38;;;;;;;5.53;2.28;;;;;;;16.95;67.09;99575.41;5013155;28;20029;-69
2022/07/17 06:03:03;;;;;;;3.70;2.78;;;;;;;17.14;68.35;99573.56;5011993;28;20025;-69
2022/07/17 06:05:29;;;;;;;6.35;3.08;;;;;;;17.41;66.65;99574.09;5009142;28;20036;-70
2022/07/17 06:07:56;;;;;;;4.22;2.92;;;;;;;17.68;67.27;99580.91;5004751;28;20040;-70
2022/07/17 06:10:21;;;;;;;5.07;2.20;;;;;;;17.82;63.76;99562.41;5000304;28;20022;-70
2022/07/17 06:12:47;;;;;;;3.05;1.70;;;;;;;18.08;60.59;99588.59;5018222;28;20071;-70
2022/07/17 06:15:12;;;;;;;3.38;2.00;;;;;;;18.39;59.69;99583.88;5000680;28;20041;-70
2022/07/17 06:17:38;;;;;;;3.20;1.80;;;;;;;18.59;59.25;99591.78;5008735;28;20495;-70
2022/07/17 06:20:04;;;;;;;4.45;2.28;;;;;;;18.74;59.62;99594.91;5006624;28;20380;-70
2022/07/17 06:22:29;;;;;;;3.45;1.63;;;;;;;18.88;57.84;99579.06;5003470;28;20124;-70
2022/07/17 06:24:55;;;;;;;1.90;1.60;;;;;;;19.23;58.03;99592.78;4999982;28;20467;-69
2022/07/17 06:27:20;;;;;;;2.42;1.60;;;;;;;19.47;57.27;99590.81;5003658;28;20091;-71
2022/07/17 06:29:46;;;;;;;2.10;1.60;;;;;;;19.62;56.50;99584.81;4999291;28;20073;-69
2022/07/17 06:32:11;;;;;;;2.88;1.73;;;;;;;19.95;56.12;99586.03;5008662;28;20025;-75
2022/07/17 06:34:37;;;;;;;6.03;1.58;;;;;;;20.10;55.21;99569.84;5007521;28;20116;-76
2022/07/17 06:37:02;;;;;;;2.58;1.42;;;;;;;20.55;54.13;99595.66;5002750;28;20487;-75
2022/07/17 06:39:27;;;;;;;3.00;1.60;;;;;;;20.76;53.79;99588.56;4997769;28;20034;-75
2022/07/17 06:41:53;;;;;;;2.72;1.70;;;;;;;21.26;52.25;99587.66;5000436;28;20026;-73
2022/07/17 06:44:18;;;;;;;1.88;1.48;;;;;;;21.61;49.53;99584.56;5000303;28;20088;-75
2022/07/17 06:46:44;;;;;;;2.03;1.20;;;;;;;22.26;49.00;99590.25;5017455;28;20057;-72
2022/07/17 06:49:10;;;;;;;1.95;1.50;;;;;;;22.64;45.95;99585.63;5000827;28;20458;-75
2022/07/17 06:51:35;;;;;;;3.13;1.33;;;;;;;23.02;44.67;99586.47;5004297;28;20101;-74
2022/07/17 06:54:00;;;;;;;2.08;1.30;;;;;;;24.10;43.47;99596.91;4998945;28;20033;-77
2022/07/17 06:56:26;;;;;;;4.35;1.23;;;;;;;25.20;41.66;99592.00;5007445;28;20050;-75
2022/07/17 06:58:51;;;;;;;2.65;1.33;;;;;;;26.88;38.64;99576.34;4995008;28;20084;-73
2022/07/17 07:01:16;;;;;;;3.65;1.67;;;;;;;28.25;35.44;99575.00;5003334;28;20037;-76
2022/07/17 07:03:42;;;;;;;2.13;1.25;;;;;;;29.78;33.07;99577.81;5010067;28;20061;-78
2022/07/17 07:06:07;;;;;;;2.38;1.25;;;;;;;31.62;30.42;99592.81;5017716;28;20022;-78
2022/07/17 07:08:34;;;;;;;5.95;1.20;;;;;;;32.80;28.51;99577.09;5011489;28;20498;-79
2022/07/17 07:11:01;;;;;;;1.27;0.98;;;;;;;32.89;28.15;99581.53;5015325;28;20407;-78
2022/07/17 07:13:26;;;;;;;2.55;1.40;;;;;;;33.50;27.07;99569.31;5017052;28;20030;-75
2022/07/17 07:15:51;;;;;;;2.42;1.27;;;;;;;34.46;25.70;99590.00;5020678;28;20026;-75
2022/07/17 07:18:17;;;;;;;2.33;1.10;;;;;;;35.41;25.40;99593.00;5026978;28;20025;-71
2022/07/17 07:20:42;;;;;;;2.13;1.10;;;;;;;34.31;25.48;99595.44;5013336;28;20025;-76
2022/07/17 07:23:07;;;;;;;2.65;1.00;;;;;;;35.75;24.95;99594.56;5017057;28;20025;-77
2022/07/17 07:25:33;;;;;;;3.08;1.27;;;;;;;36.20;24.18;99604.03;5010090;28;20507;-75
2022/07/17 07:27:59;;;;;;;2.00;1.00;;;;;;;36.03;24.67;99590.19;4997317;28;20380;-70
2022/07/17 07:30:24;;;;;;;1.98;1.05;;;;;;;36.31;23.87;99602.34;5002872;28;20026;-70
2022/07/17 07:32:50;;;;;;;4.10;1.63;;;;;;;36.17;23.78;99597.09;5007865;28;20127;-70
2022/07/17 07:35:15;;;;;;;1.10;0.77;;;;;;;35.83;24.09;99597.63;5003666;28;20044;-73
2022/07/17 07:37:40;;;;;;;2.13;0.95;;;;;;;36.15;23.14;99607.09;5012732;28;20687;-74
2022/07/17 07:40:07;;;;;;;3.72;1.20;;;;;;;35.11;24.04;99603.66;5006991;28;20084;-74
2022/07/17 07:42:33;;;;;;;1.77;0.82;;;;;;;35.89;22.73;99597.00;5003330;28;20037;-74
2022/07/17 07:44:58;;;;;;;1.27;0.90;;;;;;;36.18;22.76;99592.28;5011314;28;20018;-75
2022/07/17 07:47:24;;;;;;;1.55;0.90;;;;;;;37.06;22.66;99590.44;5005488;28;20114;-75
2022/07/17 07:49:49;;;;;;;9.73;1.25;;;;;;;36.31;22.44;99595.91;5007148;28;20380;-73
2022/07/17 07:52:15;;;;;;;2.70;0.82;;;;;;;36.82;22.83;99594.19;5011961;28;20046;-76
2022/07/17 07:54:40;;;;;;;1.83;0.80;;;;;;;36.69;22.80;99592.63;5006949;28;20053;-75
2022/07/17 07:57:05;;;;;;;1.67;0.98;;;;;;;37.12;21.67;99593.00;5002486;28;20701;-72
2022/07/17 07:59:34;;;;;;;0.77;0.60;;;;;;;37.29;21.95;99592.66;5011284;28;20527;-72
2022/07/17 08:02:00;;;;;;;2.10;0.95;;;;;;;37.11;22.02;99592.19;5006349;28;20026;-72
2022/07/17 08:04:26;;;;;;;2.25;0.77;;;;;;;37.20;22.10;99595.63;5007222;28;20472;-72
2022/07/17 08:06:52;;;;;;;2.60;0.88;;;;;;;37.33;21.25;99589.91;5005930;28;20029;-72
2022/07/17 08:09:17;;;;;;;2.08;0.80;;;;;;;38.47;20.74;99586.19;5004867;28;20030;-72
2022/07/17 08:11:42;;;;;;;1.00;0.70;;;;;;;38.72;20.44;99575.38;5003262;28;20088;-72
2022/07/17 08:14:08;;;;;;;1.77;0.97;;;;;;;38.39;20.59;99579.53;5003046;28;20285;-72
2022/07/17 08:16:33;;;;;;;3.63;0.77;;;;;;;37.89;20.21;99578.41;4999461;28;20293;-72
2022/07/17 08:18:59;;;;;;;1.55;0.80;;;;;;;39.71;19.62;99578.38;4999233;28;20969;-72
2022/07/17 08:21:24;;;;;;;2.38;1.10;;;;;;;38.54;19.87;99580.66;5002462;28;20025;-72
2022/07/17 08:23:49;;;;;;;1.63;0.80;;;;;;;38.87;19.86;99565.97;4999342;28;20087;-76
2022/07/17 08:26:15;;;;;;;1.33;0.77;;;;;;;38.61;19.73;99565.84;5002499;28;20029;-72
2022/07/17 08:28:40;;;;;;;1.25;0.88;;;;;;;38.41;19.96;99585.66;5004079;28;20038;-72
2022/07/17 08:31:05;;;;;;;1.63;0.70;;;;;;;39.76;19.04;99580.88;5007391;28;20546;-72
2022/07/17 08:33:31;;;;;;;2.95;0.70;;;;;;;39.37;19.55;99581.06;5005720;28;20352;-76
2022/07/17 08:35:56;;;;;;;5.28;0.85;;;;;;;38.41;20.42;99577.16;5007037;28;20026;-81
2022/07/17 08:38:22;;;;;;;1.45;0.50;;;;;;;39.10;19.95;99570.88;5006931;28;20026;-84
2022/07/17 08:40:49;;;;;;;1.52;0.90;;;;;;;39.50;19.97;99578.84;5011253;28;20096;-83
2022/07/17 08:43:15;;;;;;;1.98;0.85;;;;;;;38.99;20.03;99574.31;5019595;28;20033;-80
2022/07/17 08:45:41;;;;;;;1.52;0.80;;;;;;;38.15;20.84;99580.66;5022111;28;20033;-80
2022/07/17 08:48:12;;;;;;;7.32;1.02;;;;;;;38.82;20.22;99573.94;5014753;28;20030;-76
2022/07/17 08:50:37;;;;;;;3.35;1.05;;;;;;;39.93;19.18;99564.53;5018827;28;20021;-79
2022/07/17 08:53:03;;;;;;;1.48;1.00;;;;;;;39.72;19.12;99574.34;5001961;28;20041;-77
2022/07/17 08:55:29;;;;;;;0.98;0.80;;;;;;;39.84;19.71;99579.81;5007283;28;20026;-72
2022/07/17 08:57:55;;;;;;;3.10;0.73;;;;;;;39.37;19.78;99583.91;5010229;28;20109;-72
2022/07/17 09:00:22;;;;;;;1.75;0.77;;;;;;;39.76;19.31;99572.38;5012407;28;20117;-72
2022/07/17 09:02:54;;;;;;;1.67;0.77;;;;;;;39.18;19.18;99572.63;4999766;28;20195;-74
2022/07/17 09:05:24;;;;;;;1.58;0.68;;;;;;;39.03;20.14;99570.72;5012498;28;20044;-78
2022/07/17 09:07:50;;;;;;;1.80;0.90;;;;;;;39.54;19.21;99581.72;5013949;28;20044;-78
2022/07/17 09:10:15;;;;;;;1.05;0.80;;;;;;;39.79;19.61;99571.63;5014253;28;20464;-77
2022/07/17 09:12:41;;;;;;;1.20;0.70;;;;;;;40.11;18.43;99574.13;5010847;28;20028;-78
2022/07/17 09:15:17;;;;;;;2.63;0.75;;;;;;;39.92;19.19;99557.25;5012826;28;20026;-78
2022/07/17 09:17:53;;;;;;;1.92;0.98;;;;;;;40.25;18.66;99563.00;5005835;28;20021;-78
2022/07/17 09:20:20;;;;;;;4.32;0.90;;;;;;;40.15;18.48;99577.81;5006504;28;20583;-77
2022/07/17 09:22:59;;;;;;;2.45;0.80;;;;;;;39.59;19.55;99581.41;5001957;28;20084;-75
2022/07/17 09:25:45;;;;;;;0.70;0.70;;;;;;;38.96;19.38;99575.06;5008401;28;20036;-77
2022/07/17 09:28:13;;;;;;;1.45;0.60;;;;;;;39.00;19.61;99561.78;5004378;28;20037;-77
2022/07/17 09:30:42;;;;;;;3.47;0.73;;;;;;;38.57;19.42;99563.78;5011470;28;20022;-76
2022/07/17 09:33:22;;;;;;;1.35;0.70;;;;;;;38.48;19.85;99568.84;5010016;28;20087;-76
2022/07/17 09:35:53;;;;;;;1.67;0.70;;;;;;;38.86;19.74;99563.53;5024205;22;20037;-73
2022/07/17 09:38:30;;;;;;;1.33;0.65;;;;;;;39.59;19.33;99544.59;4990812;28;20423;-73
2022/07/17 09:41:11;;;;;;;1.15;0.77;;;;;;;40.43;18.43;99553.88;4985880;28;20110;-73
2022/07/17 09:43:52;;;;;;;4.38;0.80;;;;;;;39.87;18.13;99555.56;4990288;28;20034;-73
2022/07/17 09:46:39;;;;;;;1.40;0.80;;;;;;;39.44;19.00;99544.38;4980657;28;20089;-73
2022/07/17 09:49:07;;;;;;;2.72;0.82;;;;;;;36.87;20.17;99545.19;4988603;28;20098;-73
2022/07/17 09:51:34;;;;;;;;;;;;;;;38.43;19.83;99555.00;4990246;28;20039;-73
2022/07/17 09:54:03;;;;;;;2.10;0.75;;;;;;;38.24;18.90;99550.13;4988397;28;19984;-73
2022/07/17 09:56:30;;;;;;;2.03;0.60;;;;;;;38.90;19.19;99536.94;4985611;28;20038;-73
2022/07/17 09:59:06;;;;;;;1.95;0.77;;;;;;;40.19;18.48;99539.00;4985414;28;20030;-73
2022/07/17 10:01:36;;;;;;;2.33;0.60;;;;;;;39.69;18.61;99541.09;4987220;28;20042;-73
2022/07/17 10:04:03;;;;;;;0.45;0.45;;;;;;;40.50;18.31;99532.09;4982014;28;20040;-73
2022/07/17 10:06:29;;;;;;;1.30;0.80;;;;;;;40.31;18.27;99544.44;4978947;28;20061;-73
2022/07/17 10:08:55;;;;;;;2.05;0.80;;;;;;;40.19;18.14;99532.50;4984547;28;20056;-73
2022/07/17 10:11:24;;;;;;;3.28;0.77;;;;;;;40.41;18.07;99531.59;4985108;28;20559;-73
2022/07/17 10:13:52;;;;;;;0.60;0.60;;;;;;;40.92;18.06;99547.16;4984914;28;20034;-73
2022/07/17 10:16:28;;;;;;;0.73;0.60;;;;;;;40.73;17.96;99542.53;4980894;28;20041;-73
2022/07/17 10:18:57;;;;;;;1.38;0.70;;;;;;;39.88;18.22;99532.53;4979649;28;21109;-73
2022/07/17 10:21:23;;;;;;;1.85;0.80;;;;;;;40.38;17.57;99532.38;4988991;28;20185;-73
2022/07/17 10:24:06;;;;;;;0.73;0.73;;;;;;;39.59;18.07;99527.59;4976231;28;20607;-73
2022/07/17 10:26:40;;;;;;;1.08;0.70;;;;;;;37.84;20.07;99527.84;4982857;28;20038;-73
2022/07/17 10:29:30;;;;;;;1.23;0.98;;;;;;;38.83;19.29;99527.47;4986178;28;20038;-73
2022/07/17 10:31:58;;;;;;;2.67;0.63;;;;;;;39.03;19.24;99514.13;4976066;28;20065;-73
2022/07/17 10:34:43;;;;;;;1.25;0.60;;;;;;;39.66;18.61;99516.38;4986411;28;20109;-73
2022/07/17 10:37:35;;;;;;;1.38;0.75;;;;;;;38.04;18.87;99523.88;4979003;28;20038;-72
2022/07/17 10:40:06;;;;;;;3.42;0.93;;;;;;;38.26;18.81;99516.69;4987838;28;20455;-72
2022/07/17 10:42:49;;;;;;;1.08;0.60;;;;;;;39.05;18.29;99520.22;4988175;28;20085;-72
2022/07/17 10:45:26;;;;;;;2.65;0.80;;;;;;;38.49;18.75;99516.78;4987755;28;20116;-72
2022/07/17 10:48:01;;;;;;;3.20;0.80;;;;;;;37.26;20.02;99518.00;4991737;28;20034;-72
2022/07/17 10:50:35;;;;;;;5.28;0.73;;;;;;;37.83;19.32;99518.53;4994190;28;20030;-73
2022/07/17 10:53:16;;;;;;;1.25;0.65;;;;;;;38.68;18.83;99515.09;4991970;28;20673;-73
2022/07/17 10:55:44;;;;;;;1.20;0.60;;;;;;;37.29;19.94;99500.34;4979965;28;20109;-73
2022/07/17 10:58:27;;;;;;;1.95;0.82;;;;;;;37.49;19.14;99515.34;4985534;28;20121;-73
2022/07/17 11:01:05;;;;;;;1.77;0.77;;;;;;;38.70;19.56;99510.69;4985400;28;20034;-71
2022/07/17 11:03:35;;;;;;;1.53;0.77;;;;;;;39.54;18.69;99514.59;4984327;28;20119;-71
2022/07/17 11:06:07;;;;;;;1.50;0.50;;;;;;;39.97;18.22;99511.59;4985903;28;20399;-73
2022/07/17 11:08:45;;;;;;;1.65;1.00;;;;;;;40.85;17.60;99515.88;4992992;28;20407;-72
2022/07/17 11:11:11;;;;;;;0.70;0.63;;;;;;;39.77;16.97;99497.53;4990081;28;20041;-72
2022/07/17 11:13:36;;;;;;;1.63;0.60;;;;;;;40.61;15.89;99501.03;4985319;28;20034;-72
2022/07/17 11:16:02;;;;;;;2.92;0.68;;;;;;;38.66;16.99;99503.34;4991293;28;20022;-72
2022/07/17 11:18:28;;;;;;;1.55;0.60;;;;;;;38.88;17.28;99494.06;4989510;28;20069;-72
2022/07/17 11:20:59;;;;;;;0.40;0.40;;;;;;;40.10;16.67;99495.97;4992903;28;20050;-72
2022/07/17 11:23:28;;;;;;;3.25;0.75;;;;;;;39.77;16.54;99483.38;4987158;28;20030;-72
2022/07/17 11:26:06;;;;;;;0.88;0.50;;;;;;;40.73;15.67;99495.09;4991126;28;20396;-73
2022/07/17 11:28:34;;;;;;;1.45;0.52;;;;;;;41.06;15.50;99496.22;4985747;28;20073;-72
2022/07/17 11:31:01;;;;;;;2.80;0.90;;;;;;;41.87;15.25;99479.34;4994030;28;20125;-72